Observations for BOURNEMOUTH AIRPORT, United Kingdom (EGHH)

EGHH 231050Z 24011KT 3000 -DZRA BR BKN005 BKN012 15/15 Q1017
EGHH 231020Z 24012KT 4600 -DZ BR BKN005 BKN012 15/15 Q1017  
EGHH 230950Z 24011KT 3000 -DZ BR BKN004 15/15 Q1017 
EGHH 230920Z 23011KT 3000 -RA BR BKN004 15/14 Q1017 
EGHH 230850Z 23009KT 3000 -RA BR BKN004 14/14 Q1017 
EGHH 230820Z 23010KT 3500 -RA BR BKN006 14/14 Q1017 
EGHH 230750Z 22008KT 3900 -RA BR BKN005 14/13 Q1017 
EGHH 230720Z 21006KT 5000 -RA BR BKN006 13/13 Q1018 
EGHH 230650Z 21006KT 4500 -RA BR BKN006 13/12 Q1018 
EGHH 230620Z 21005KT 7000 -RA BKN007 13/12 Q1018
EGHH 230550Z 22006KT 7000 -RA BKN007 13/13 Q1018
EGHH 230520Z 22006KT 9000 SCT011 BKN033 13/12 Q1018 RERA
EGHH 230450Z 22006KT 5000 RA BR SCT011 BKN016 13/12 Q1020   
EGHH 222120Z 26012KT 9999 BKN049 11/09 Q1020
EGHH 222050Z 27009KT 9999 FEW039 SCT049 11/08 Q1020 
EGHH 222020Z 27007KT 9999 BKN049 11/08 Q1020
EGHH 221950Z 26009KT 9999 BKN048 11/08 Q1019
EGHH 221920Z 27011KT 9999 BKN048 11/08 Q1019
EGHH 221850Z 28011KT 9999 -RA BKN039 12/08 Q1019
EGHH 221820Z 27010KT 9999 BKN036 11/09 Q1019
EGHH 221750Z 27011KT 9999 BKN037 11/09 Q1018
EGHH 221720Z 27010KT 9999 BKN040 11/09 Q1018
EGHH 221650Z 27009KT 9999 FEW030 SCT039 11/09 Q1018 
EGHH 221550Z 31010KT 9999 -RA FEW031 SCT039 12/10 Q1017 
EGHH 221520Z 29012KT 9999 VCSH FEW029 SCT039 11/10 Q1017
EGHH 221450Z 29015KT 8000 3000W RA FEW028 SCT042 11/10 Q1017
EGHH 221420Z 29013KT 9999 VCSH FEW024 BKN041 13/10 Q1017
EGHH 221350Z 29011KT 9999 VCSH FEW024 BKN038 12/10 Q1017
EGHH 221320Z 29010KT 9999 VCSH FEW029 BKN036 12/10 Q1017
EGHH 221250Z 29012KT 9999 -SHRA FEW029 BKN036 12/08 Q1017   
EGHH 221220Z 29015KT 9999 VCSH FEW027 SCT031 12/08 Q1017
EGHH 221150Z 29010G20KT 9999 -SHRA FEW024 BKN030 12/08 Q1016
EGHH 221120Z 28013KT 9999 VCSH BKN034 12/07 Q1016   
EGHH 221050Z 29011KT 9999 BKN036 12/06 Q1016